Time;durP1;ratioP1;P1;durP2;ratioP2;P2;SDS_P1;SDS_P2;PMS_P1;PMS_P2;Temp;Humidity;BMP_temperature;BMP_pressure;BME280_temperature;BME280_humidity;BME280_pressure;Samples;Min_cycle;Max_cycle;Signal;HPM_P1;HPM_P2
2022/07/29 00:01:18;;;;;;;4.22;2.35;;;;;;;23.49;42.96;100316.16;4133519;28;20068;-71
2022/07/29 00:03:21;;;;;;;4.50;2.30;;;;;;;23.47;43.15;100312.72;4132730;28;20047;-71
2022/07/29 00:05:26;;;;;;;4.45;2.70;;;;;;;23.49;43.49;100310.00;4133823;28;20096;-71
2022/07/29 00:07:29;;;;;;;3.55;2.28;;;;;;;23.51;43.63;100313.47;4133454;28;20137;-71
2022/07/29 00:09:32;;;;;;;12.30;3.42;;;;;;;23.55;43.73;100311.53;4133388;28;20053;-71
2022/07/29 00:11:53;;;;;;;4.70;2.40;;;;;;;23.53;43.81;100311.59;4132662;28;20101;-71
2022/07/29 00:13:56;;;;;;;7.57;2.40;;;;;;;23.50;44.15;100311.72;4132039;28;20058;-71
2022/07/29 00:15:59;;;;;;;3.58;2.45;;;;;;;23.50;43.95;100309.06;4131894;28;20081;-71
2022/07/29 00:18:07;;;;;;;3.70;2.33;;;;;;;23.50;44.20;100303.78;4132161;28;20039;-71
2022/07/29 00:20:10;;;;;;;7.00;2.38;;;;;;;23.50;44.27;100306.41;4133239;28;20045;-71
2022/07/29 00:22:15;;;;;;;4.50;2.45;;;;;;;23.48;44.15;100302.94;4130870;28;20046;-71
2022/07/29 00:24:17;;;;;;;;;;;;;;;23.31;44.31;100309.84;4133570;28;20538;-71
2022/07/29 00:26:20;;;;;;;6.13;2.25;;;;;;;23.37;44.12;100306.06;4133174;28;19928;-71
2022/07/29 00:28:23;;;;;;;3.35;2.13;;;;;;;23.44;44.01;100309.34;4133123;28;20142;-71
2022/07/29 00:30:26;;;;;;;4.35;2.22;;;;;;;23.43;44.31;100307.59;4133130;28;20049;-71
2022/07/29 00:32:29;;;;;;;6.22;2.30;;;;;;;23.42;44.24;100301.44;4132367;28;20522;-71
2022/07/29 00:36:53;;;;;;;4.70;2.67;;;;;;;23.41;44.00;100298.81;4131670;28;20493;-71
2022/07/29 00:38:57;;;;;;;5.75;2.30;;;;;;;23.40;44.14;100292.66;4132941;28;20049;-71
2022/07/29 00:41:00;;;;;;;4.82;2.47;;;;;;;23.41;44.00;100296.16;4132913;28;20053;-71
2022/07/29 00:43:03;;;;;;;5.07;2.47;;;;;;;23.41;44.13;100294.41;4130827;28;20057;-71
2022/07/29 00:45:06;;;;;;;5.85;2.45;;;;;;;23.40;44.29;100294.47;4131655;28;20042;-71
2022/07/29 00:47:10;;;;;;;5.20;3.08;;;;;;;23.38;44.47;100291.00;4132874;28;20053;-71
2022/07/29 00:49:13;;;;;;;;;;;;;;;23.22;44.74;100296.97;4133196;28;20132;-71
2022/07/29 00:51:16;;;;;;;5.05;2.67;;;;;;;23.27;44.85;100302.06;4132755;28;19984;-71
2022/07/29 00:53:20;;;;;;;4.20;2.42;;;;;;;23.27;45.05;100292.31;4130916;28;20066;-71
2022/07/29 00:55:25;;;;;;;4.40;2.65;;;;;;;23.27;44.96;100291.47;4132649;28;20121;-71
2022/07/29 00:57:28;;;;;;;;;;;;;;;23.10;45.64;100292.09;4133025;28;20062;-71
2022/07/29 00:59:31;;;;;;;7.38;3.10;;;;;;;23.21;45.26;100287.25;4132658;28;19922;-71
2022/07/29 01:01:37;;;;;;;6.93;2.85;;;;;;;23.13;45.05;100287.59;4132042;28;20417;-71
2022/07/29 01:03:40;;;;;;;5.70;2.90;;;;;;;23.07;45.31;100277.22;4131264;28;20046;-71
2022/07/29 01:05:45;;;;;;;4.20;2.90;;;;;;;23.10;45.40;100276.19;4132534;28;20116;-71
2022/07/29 01:07:55;;;;;;;6.78;2.85;;;;;;;23.00;45.58;100278.38;4132528;28;20404;-71
2022/07/29 01:09:59;;;;;;;7.05;2.88;;;;;;;22.93;45.56;100269.78;4132421;28;20053;-71
2022/07/29 01:12:05;;;;;;;7.00;3.05;;;;;;;22.93;45.53;100275.09;4130509;28;20532;-71
2022/07/29 01:14:10;;;;;;;7.20;3.17;;;;;;;23.05;45.43;100272.88;4132219;28;20038;-71
2022/07/29 01:16:19;;;;;;;6.15;3.05;;;;;;;23.06;45.59;100274.63;4132340;28;20517;-71
2022/07/29 01:18:28;;;;;;;5.75;2.83;;;;;;;23.14;45.25;100267.22;4115068;28;20046;-71
2022/07/29 01:20:44;;;;;;;10.15;3.30;;;;;;;23.26;44.31;100266.75;4131181;28;20030;-71
2022/07/29 01:23:12;;;;;;;8.43;3.63;;;;;;;23.22;44.11;100261.59;4131505;28;20053;-70
2022/07/29 01:25:42;;;;;;;8.18;3.05;;;;;;;23.22;43.96;100257.19;4132204;28;20511;-71
2022/07/29 01:28:09;;;;;;;6.32;2.92;;;;;;;23.22;44.20;100272.22;4132220;28;20056;-70
2022/07/29 01:30:15;;;;;;;8.30;4.00;;;;;;;23.29;43.71;100263.94;4132185;28;20105;-70
2022/07/29 01:32:22;;;;;;;10.30;3.70;;;;;;;23.34;43.84;100264.59;4131399;28;20073;-72
2022/07/29 01:34:40;;;;;;;8.00;3.92;;;;;;;23.30;43.71;100267.47;4131412;28;20404;-72
2022/07/29 01:36:47;;;;;;;6.85;4.05;;;;;;;23.25;43.35;100267.66;4132035;28;20125;-71
2022/07/29 01:38:57;;;;;;;9.15;3.28;;;;;;;23.23;42.73;100265.97;4132126;28;20042;-71
2022/07/29 01:41:06;;;;;;;9.35;3.05;;;;;;;23.20;42.42;100263.47;4132054;28;20061;-71
2022/07/29 01:43:12;;;;;;;6.70;3.10;;;;;;;23.15;42.35;100258.34;4131223;28;20038;-71
2022/07/29 01:45:20;;;;;;;7.70;3.00;;;;;;;23.12;42.53;100256.69;4132041;28;20042;-71
2022/07/29 01:47:27;;;;;;;4.60;2.20;;;;;;;23.09;42.32;100255.94;4132015;28;20043;-71
2022/07/29 01:49:36;;;;;;;5.45;2.47;;;;;;;23.07;42.33;100253.34;4130720;28;20057;-71
2022/07/29 01:51:44;;;;;;;6.32;2.30;;;;;;;23.06;41.94;100256.06;4131283;28;20045;-70
2022/07/29 01:53:55;;;;;;;7.72;2.38;;;;;;;23.05;41.95;100260.47;4131713;28;20042;-70
2022/07/29 01:56:00;;;;;;;11.70;2.25;;;;;;;23.00;41.36;100255.38;4130606;28;20089;-71
2022/07/29 01:58:06;;;;;;;7.57;2.28;;;;;;;22.94;41.54;100260.94;4130602;28;20129;-70
2022/07/29 02:00:11;;;;;;;4.95;2.47;;;;;;;22.92;41.66;100260.09;4131817;28;20138;-71
2022/07/29 02:02:17;;;;;;;5.10;2.13;;;;;;;22.92;41.53;100253.94;4129784;28;20080;-71
2022/07/29 02:04:21;;;;;;;7.88;3.17;;;;;;;22.91;41.54;100255.75;4131362;28;20046;-70
2022/07/29 02:06:38;;;;;;;8.80;2.47;;;;;;;22.88;41.91;100255.00;4131759;28;20045;-70
2022/07/29 02:08:42;;;;;;;7.18;3.00;;;;;;;22.87;42.05;100256.78;4131709;28;20042;-71
2022/07/29 02:10:47;;;;;;;8.00;2.90;;;;;;;22.93;41.36;100250.38;4131693;28;20522;-70
2022/07/29 02:12:51;;;;;;;5.65;2.75;;;;;;;22.88;41.73;100250.59;4130857;28;20038;-71
2022/07/29 02:14:55;;;;;;;5.88;2.75;;;;;;;22.89;41.72;100256.72;4131517;28;20065;-71
2022/07/29 02:17:01;;;;;;;4.95;2.28;;;;;;;22.83;41.80;100252.53;4131570;28;20322;-70
2022/07/29 02:19:08;;;;;;;10.32;2.47;;;;;;;22.80;42.21;100248.22;4114485;28;20045;-70
2022/07/29 02:21:13;;;;;;;3.83;2.15;;;;;;;22.79;42.11;100254.47;4131551;28;20050;-71
2022/07/29 02:23:21;;;;;;;4.35;2.65;;;;;;;22.75;42.70;100255.50;4130746;28;20070;-70
2022/07/29 02:25:25;;;;;;;6.30;2.67;;;;;;;22.79;42.23;100257.13;4130436;28;20046;-70
2022/07/29 02:27:42;;;;;;;7.95;2.90;;;;;;;22.81;42.27;100251.75;4131558;28;20061;-71
2022/07/29 02:29:47;;;;;;;6.05;2.70;;;;;;;22.81;41.96;100260.56;4130222;28;20120;-70
2022/07/29 02:31:52;;;;;;;7.97;2.63;;;;;;;22.82;41.61;100254.34;4129645;28;20045;-70
2022/07/29 02:33:56;;;;;;;8.32;2.83;;;;;;;22.74;41.32;100258.22;4131364;28;20034;-70
2022/07/29 02:36:02;;;;;;;;;;;;;;;22.51;41.74;100256.47;4130771;28;20039;-70
2022/07/29 02:40:28;;;;;;;6.43;2.80;;;;;;;22.53;42.28;100252.84;4106724;28;20050;-70
2022/07/29 02:42:34;;;;;;;4.72;2.03;;;;;;;22.59;42.11;100259.66;4130687;28;20057;-70
2022/07/29 02:44:37;;;;;;;5.78;2.03;;;;;;;22.55;42.35;100250.97;4130867;28;20508;-70
2022/07/29 02:46:47;;;;;;;7.45;2.70;;;;;;;22.58;42.09;100253.50;4134648;28;20145;-70
2022/07/29 02:48:56;;;;;;;6.13;2.00;;;;;;;22.53;43.45;100255.50;4134675;28;20440;-70
2022/07/29 02:51:07;;;;;;;8.23;2.45;;;;;;;22.53;43.40;100255.50;4134643;28;20061;-70
2022/07/29 02:53:19;;;;;;;5.97;2.22;;;;;;;22.46;43.06;100256.66;4133769;28;20136;-70
2022/07/29 02:55:26;;;;;;;8.30;2.90;;;;;;;22.44;43.31;100258.47;4134765;28;20046;-71
2022/07/29 02:57:34;;;;;;;4.68;2.10;;;;;;;22.37;43.37;100259.63;4134494;28;20048;-70
2022/07/29 03:00:03;;;;;;;8.70;2.42;;;;;;;22.30;43.66;100258.97;4133273;28;20038;-70
2022/07/29 03:02:08;;;;;;;5.90;2.40;;;;;;;22.29;44.01;100255.44;4132551;28;20046;-71
2022/07/29 03:04:13;;;;;;;9.23;2.58;;;;;;;22.35;43.88;100261.47;4134346;28;20467;-71
2022/07/29 03:06:20;;;;;;;5.75;2.20;;;;;;;22.35;43.73;100250.88;4133271;28;20493;-71
2022/07/29 03:08:41;;;;;;;8.10;2.67;;;;;;;22.27;43.97;100253.81;4134315;28;20121;-70
2022/07/29 03:10:45;;;;;;;6.60;2.50;;;;;;;22.17;44.39;100253.28;4134310;28;20137;-70
2022/07/29 03:12:48;;;;;;;;;;;;;;;22.00;44.62;100253.88;4133899;28;20038;-70
2022/07/29 03:14:53;;;;;;;5.80;2.65;;;;;;;22.04;44.50;100257.31;4134190;28;20280;-70
2022/07/29 03:16:56;;;;;;;5.45;2.40;;;;;;;22.07;44.34;100255.38;4134316;28;20066;-70
2022/07/29 03:18:59;;;;;;;5.57;2.33;;;;;;;22.12;44.49;100260.50;4132834;28;20403;-70
2022/07/29 03:21:04;;;;;;;5.32;2.47;;;;;;;22.01;45.00;100258.28;4134165;28;20038;-70
2022/07/29 03:23:08;;;;;;;7.47;2.20;;;;;;;22.01;45.00;100252.97;4133638;28;20050;-70
2022/07/29 03:25:13;;;;;;;6.93;2.28;;;;;;;22.02;45.27;100248.53;4134108;28;20403;-71
2022/07/29 03:27:16;;;;;;;5.50;2.63;;;;;;;21.97;45.13;100251.34;4134095;28;20044;-70
2022/07/29 03:29:19;;;;;;;4.65;2.30;;;;;;;21.98;45.14;100253.09;4134009;28;20077;-70
2022/07/29 03:31:22;;;;;;;7.40;3.15;;;;;;;22.02;45.12;100254.72;4132817;28;20042;-70
2022/07/29 03:33:25;;;;;;;9.00;3.65;;;;;;;22.00;44.58;100260.97;4133176;28;20142;-70
2022/07/29 03:35:28;;;;;;;3.88;2.45;;;;;;;21.90;45.00;100255.13;4133961;28;20138;-71
2022/07/29 03:37:31;;;;;;;8.05;3.13;;;;;;;21.84;45.20;100255.38;4133861;28;20044;-71
2022/07/29 03:39:41;;;;;;;5.07;2.63;;;;;;;21.81;45.39;100256.34;4133793;28;20038;-71
2022/07/29 03:41:46;;;;;;;7.35;2.80;;;;;;;21.75;45.35;100251.28;4133219;28;20046;-71
2022/07/29 03:43:52;;;;;;;5.78;2.65;;;;;;;21.76;45.43;100253.84;4133664;28;20062;-71
2022/07/29 03:45:57;;;;;;;8.48;2.85;;;;;;;21.81;45.57;100260.78;4132641;28;20042;-71
2022/07/29 03:48:04;;;;;;;5.18;2.22;;;;;;;21.79;45.54;100255.53;4116437;28;20046;-71
2022/07/29 03:50:09;;;;;;;11.13;3.58;;;;;;;21.66;45.75;100257.75;4133795;28;20042;-71
2022/07/29 03:52:13;;;;;;;8.18;3.42;;;;;;;21.65;45.76;100261.31;4131753;28;20047;-71
2022/07/29 03:54:16;;;;;;;5.47;3.00;;;;;;;21.60;46.15;100264.13;4133662;28;20045;-71
2022/07/29 03:56:22;;;;;;;5.18;3.10;;;;;;;21.61;46.25;100262.31;4132906;28;20141;-71
2022/07/29 03:58:27;;;;;;;6.95;3.17;;;;;;;21.56;46.54;100258.97;4133450;28;20046;-70
2022/07/29 04:00:33;;;;;;;6.22;3.10;;;;;;;21.51;47.08;100259.16;4133512;28;20408;-70
2022/07/29 04:02:38;;;;;;;4.28;2.47;;;;;;;21.50;47.19;100257.38;4132747;28;20073;-70
2022/07/29 04:04:41;;;;;;;7.32;3.08;;;;;;;21.48;47.11;100259.22;4133477;28;20267;-70
2022/07/29 04:06:46;;;;;;;7.72;3.45;;;;;;;21.48;47.02;100264.50;4133460;28;20050;-70
2022/07/29 04:08:50;;;;;;;5.88;2.83;;;;;;;21.41;47.18;100263.84;4133462;28;20096;-70
2022/07/29 04:10:53;;;;;;;8.95;2.70;;;;;;;21.40;47.31;100263.91;4132214;28;20097;-70
2022/07/29 04:12:57;;;;;;;6.07;2.40;;;;;;;21.34;47.59;100264.97;4132581;28;20495;-70
2022/07/29 04:15:00;;;;;;;8.90;3.10;;;;;;;21.28;47.89;100266.03;4133261;28;20132;-70
2022/07/29 04:17:05;;;;;;;17.70;3.78;;;;;;;21.31;48.11;100262.44;4133384;28;20050;-70
2022/07/29 04:19:07;;;;;;;24.48;4.20;;;;;;;21.28;48.44;100262.53;4133258;28;20561;-70
2022/07/29 04:21:10;;;;;;;11.82;3.13;;;;;;;21.25;48.25;100268.78;4133222;28;20042;-70
2022/07/29 04:23:13;;;;;;;12.00;3.42;;;;;;;21.23;48.49;100269.75;4132445;28;20046;-70
2022/07/29 04:25:17;;;;;;;15.23;3.35;;;;;;;21.20;48.89;100265.44;4133340;28;20385;-70
2022/07/29 04:27:20;;;;;;;10.82;2.75;;;;;;;21.23;48.80;100262.69;4133140;28;20034;-70
2022/07/29 04:29:24;;;;;;;15.90;3.63;;;;;;;21.16;49.40;100266.47;4131935;28;20042;-70
2022/07/29 04:31:27;;;;;;;18.98;3.22;;;;;;;21.20;49.68;100268.09;4133057;28;20415;-70
2022/07/29 04:33:30;;;;;;;14.77;3.67;;;;;;;21.25;49.79;100267.94;4132288;28;20042;-71
2022/07/29 04:35:36;;;;;;;12.70;3.10;;;;;;;21.20;50.19;100269.84;4132977;28;20500;-71
2022/07/29 04:37:47;;;;;;;7.57;3.20;;;;;;;21.18;50.94;100275.19;4131867;28;20069;-71
2022/07/29 04:39:50;;;;;;;6.45;2.72;;;;;;;21.21;51.46;100276.88;4132916;28;20432;-71
2022/07/29 04:41:53;;;;;;;13.60;3.70;;;;;;;21.19;51.47;100279.56;4132180;28;20142;-71
2022/07/29 04:44:00;;;;;;;8.35;2.83;;;;;;;21.11;51.00;100286.88;4132751;28;20044;-71
2022/07/29 04:46:07;;;;;;;6.78;3.20;;;;;;;21.14;50.48;100284.13;4131660;28;20539;-71
2022/07/29 04:48:10;;;;;;;8.63;2.42;;;;;;;21.12;49.22;100283.31;4132914;28;20046;-71
2022/07/29 04:50:13;;;;;;;8.13;2.55;;;;;;;21.12;49.07;100283.31;4132776;28;20595;-71
2022/07/29 04:52:16;;;;;;;9.23;2.70;;;;;;;21.14;49.53;100281.47;4132070;28;20042;-71
2022/07/29 04:54:19;;;;;;;4.32;2.33;;;;;;;21.21;48.81;100275.09;4131357;28;20309;-71
2022/07/29 04:56:22;;;;;;;11.43;2.47;;;;;;;21.24;49.32;100280.28;4132692;28;20057;-71
2022/07/29 04:58:26;;;;;;;6.40;2.25;;;;;;;21.30;49.15;100281.00;4115355;28;20039;-71
2022/07/29 05:00:29;;;;;;;7.25;2.63;;;;;;;21.30;48.59;100278.34;4132602;28;20034;-71
2022/07/29 05:02:37;;;;;;;9.60;2.38;;;;;;;21.34;49.20;100277.34;4131921;28;20077;-71
2022/07/29 05:04:39;;;;;;;;;;;;;;;21.30;48.96;100268.63;4132916;28;20061;-70
2022/07/29 05:06:42;;;;;;;8.65;2.42;;;;;;;21.41;48.48;100277.06;4132582;28;19922;-71
2022/07/29 05:08:45;;;;;;;4.45;2.33;;;;;;;21.49;48.50;100279.44;4131488;28;20042;-72
2022/07/29 05:10:48;;;;;;;6.25;2.50;;;;;;;21.53;48.48;100275.81;4132507;28;20105;-72
2022/07/29 05:12:51;;;;;;;5.72;2.20;;;;;;;21.56;48.13;100283.66;4131549;28;20038;-72
2022/07/29 05:14:54;;;;;;;7.05;2.70;;;;;;;21.58;48.14;100279.19;4132344;28;20042;-73
2022/07/29 05:16:57;;;;;;;7.63;2.78;;;;;;;21.61;48.05;100287.00;4131228;28;20053;-72
2022/07/29 05:19:01;;;;;;;10.32;2.50;;;;;;;21.69;47.81;100288.53;4132268;28;20129;-73
2022/07/29 05:21:04;;;;;;;5.78;2.00;;;;;;;21.70;47.63;100290.25;4130953;28;20129;-72
2022/07/29 05:23:07;;;;;;;3.97;2.10;;;;;;;21.71;47.70;100281.41;4131430;28;20049;-73
2022/07/29 05:25:10;;;;;;;10.05;2.78;;;;;;;21.72;47.56;100291.91;4131002;28;20086;-72
2022/07/29 05:27:13;;;;;;;5.95;2.42;;;;;;;21.72;47.77;100285.78;4132224;28;20061;-73
2022/07/29 05:29:16;;;;;;;9.70;2.28;;;;;;;21.70;47.71;100285.84;4132235;28;20121;-72
2022/07/29 05:31:39;;;;;;;5.40;2.25;;;;;;;21.71;47.33;100289.34;4130434;28;20042;-72
2022/07/29 05:33:42;;;;;;;6.28;2.42;;;;;;;21.76;47.46;100292.69;4130749;28;20054;-72
2022/07/29 05:35:46;;;;;;;5.57;2.63;;;;;;;21.80;47.27;100294.31;4132038;28;20129;-72
2022/07/29 05:37:49;;;;;;;8.80;2.70;;;;;;;21.75;47.07;100302.41;4130958;28;20038;-72
2022/07/29 05:39:52;;;;;;;9.10;2.70;;;;;;;21.76;46.75;100298.00;4132007;28;20129;-72
2022/07/29 05:42:00;;;;;;;11.43;3.00;;;;;;;21.76;46.97;100300.63;4130084;28;20043;-73
2022/07/29 05:44:04;;;;;;;10.75;2.95;;;;;;;21.79;46.92;100295.22;4131943;28;20045;-73
2022/07/29 05:46:07;;;;;;;7.53;2.67;;;;;;;21.84;46.82;100298.56;4131971;28;20133;-73
2022/07/29 05:48:10;;;;;;;10.70;2.85;;;;;;;21.89;46.46;100299.28;4131927;28;20104;-72
2022/07/29 05:50:13;;;;;;;11.30;2.47;;;;;;;21.93;46.04;100298.25;4130723;28;20038;-71
2022/07/29 05:52:18;;;;;;;7.40;3.08;;;;;;;21.94;46.18;100305.25;4131170;28;20492;-73
2022/07/29 05:54:21;;;;;;;7.65;2.50;;;;;;;21.95;46.02;100304.34;4131873;28;20077;-73
2022/07/29 05:56:24;;;;;;;6.50;3.13;;;;;;;22.00;46.25;100306.81;4131942;28;20042;-72
2022/07/29 05:58:27;;;;;;;8.32;3.13;;;;;;;22.11;46.41;100298.53;4131788;28;20129;-72
2022/07/29 06:00:30;;;;;;;11.30;3.20;;;;;;;22.21;46.27;100305.19;4131727;28;20038;-71
2022/07/29 06:02:33;;;;;;;7.13;2.85;;;;;;;22.28;46.18;100311.13;4131001;28;20042;-72
2022/07/29 06:04:36;;;;;;;10.05;2.70;;;;;;;22.35;46.40;100317.94;4131583;28;20488;-72
2022/07/29 06:06:39;;;;;;;5.43;2.67;;;;;;;22.40;46.62;100318.66;4131652;28;20108;-72
2022/07/29 06:08:43;;;;;;;11.23;3.08;;;;;;;22.50;46.25;100319.16;4131705;28;20042;-71
2022/07/29 06:10:46;;;;;;;9.18;3.17;;;;;;;22.58;45.82;100321.53;4130427;28;20046;-72
2022/07/29 06:12:49;;;;;;;8.98;3.17;;;;;;;22.63;46.00;100320.44;4130777;28;20129;-72
2022/07/29 06:14:52;;;;;;;8.88;2.65;;;;;;;22.68;45.99;100328.22;4131578;28;20520;-73
2022/07/29 06:16:56;;;;;;;7.93;2.85;;;;;;;22.69;45.95;100321.13;4131579;28;20074;-72
2022/07/29 06:18:59;;;;;;;4.85;2.60;;;;;;;22.67;45.89;100323.81;4131386;28;20137;-73
2022/07/29 06:21:02;;;;;;;8.55;3.08;;;;;;;22.74;45.42;100324.47;4131607;28;20512;-73
2022/07/29 06:23:05;;;;;;;10.93;3.60;;;;;;;22.82;45.19;100331.19;4113433;28;20537;-72
2022/07/29 06:25:13;;;;;;;4.90;2.80;;;;;;;22.83;45.52;100321.44;4130308;28;20070;-73
2022/07/29 06:27:17;;;;;;;10.35;3.05;;;;;;;22.85;45.84;100324.91;4131555;28;20046;-73
2022/07/29 06:29:20;;;;;;;7.60;3.08;;;;;;;22.89;45.91;100320.34;4130226;28;20053;-74
2022/07/29 06:31:22;;;;;;;7.88;2.65;;;;;;;22.98;45.67;100323.50;4130308;28;20113;-72
2022/07/29 06:33:26;;;;;;;8.55;2.65;;;;;;;23.05;45.89;100320.63;4129373;28;20052;-71
2022/07/29 06:35:29;;;;;;;8.25;2.58;;;;;;;23.08;46.14;100321.34;4130221;28;20046;-72
2022/07/29 06:37:44;;;;;;;5.50;2.58;;;;;;;23.09;46.57;100317.78;4131403;28;20064;-71
2022/07/29 06:40:59;;;;;;;7.07;2.60;;;;;;;23.08;46.94;100323.13;4131338;28;20075;-73
2022/07/29 06:42:16;;;;;;;8.18;2.97;;;;;;;23.16;46.65;100326.38;4129316;28;20038;-72
2022/07/29 06:44:19;;;;;;;6.32;2.92;;;;;;;23.16;47.25;100329.03;4131392;28;20484;-72
2022/07/29 06:46:22;;;;;;;7.07;2.70;;;;;;;23.17;48.00;100334.28;4131416;28;20133;-73
2022/07/29 06:48:26;;;;;;;6.78;2.83;;;;;;;23.25;48.05;100330.47;4131407;28;20647;-73
2022/07/29 06:50:29;;;;;;;8.93;2.88;;;;;;;23.30;47.79;100337.28;4131387;28;20125;-73
2022/07/29 06:52:32;;;;;;;12.23;4.15;;;;;;;23.30;46.96;100342.59;4130645;28;20070;-73
2022/07/29 06:54:35;;;;;;;11.23;2.95;;;;;;;23.28;47.36;100338.28;4131349;28;20100;-74
2022/07/29 06:56:41;;;;;;;8.45;3.13;;;;;;;23.27;47.65;100341.84;4131351;28;20408;-73
2022/07/29 06:58:46;;;;;;;5.50;3.20;;;;;;;23.26;47.84;100345.44;4130056;28;20189;-72
2022/07/29 07:00:49;;;;;;;8.38;3.92;;;;;;;23.16;48.17;100344.94;4131219;28;20049;-73
2022/07/29 07:02:52;;;;;;;6.07;3.10;;;;;;;23.21;48.41;100353.56;4130328;28;20049;-71
2022/07/29 07:04:55;;;;;;;6.20;2.72;;;;;;;23.38;48.51;100344.06;4130897;28;20046;-73
2022/07/29 07:06:58;;;;;;;9.95;3.55;;;;;;;23.57;48.26;100333.53;4129985;28;20145;-74
2022/07/29 07:09:02;;;;;;;5.53;2.80;;;;;;;23.52;48.59;100347.00;4131251;28;20126;-73
2022/07/29 07:11:06;;;;;;;6.03;2.67;;;;;;;23.55;48.93;100351.34;4113929;28;20046;-72
2022/07/29 07:13:09;;;;;;;9.15;3.20;;;;;;;23.65;48.57;100347.38;4130302;28;20070;-72
2022/07/29 07:15:13;;;;;;;12.13;3.83;;;;;;;23.68;48.69;100353.44;4130061;28;20049;-72
2022/07/29 07:17:16;;;;;;;;;;;;;;;23.51;48.88;100356.78;4131598;28;20066;-72
2022/07/29 07:19:19;;;;;;;6.70;2.88;;;;;;;23.53;49.10;100356.72;4131192;28;20008;-72
2022/07/29 07:21:21;;;;;;;6.07;2.70;;;;;;;23.48;49.55;100358.66;4129804;28;20637;-73
2022/07/29 07:23:26;;;;;;;6.05;2.90;;;;;;;23.52;49.54;100357.63;4130439;28;20049;-73
2022/07/29 07:25:29;;;;;;;4.00;2.47;;;;;;;23.56;49.61;100364.53;4129852;28;20504;-74
2022/07/29 07:27:32;;;;;;;7.28;2.92;;;;;;;23.68;49.36;100358.72;4129893;28;20042;-74
2022/07/29 07:29:35;;;;;;;5.30;2.60;;;;;;;23.81;49.66;100366.16;4131131;28;20042;-72
2022/07/29 07:31:39;;;;;;;6.28;3.00;;;;;;;23.89;49.54;100366.75;4131091;28;20114;-74
2022/07/29 07:33:42;;;;;;;7.80;3.10;;;;;;;24.05;49.25;100367.81;4134351;28;20050;-74
2022/07/29 07:35:45;;;;;;;6.80;2.95;;;;;;;24.01;49.20;100358.25;4132517;28;20057;-73
2022/07/29 07:37:48;;;;;;;8.85;3.13;;;;;;;23.98;49.15;100358.38;4133942;28;20038;-72
2022/07/29 07:39:51;;;;;;;5.28;2.70;;;;;;;23.91;48.86;100362.22;4133900;28;20125;-72
2022/07/29 07:41:54;;;;;;;8.05;2.67;;;;;;;23.81;49.49;100359.06;4131821;28;20052;-73
2022/07/29 07:43:56;;;;;;;6.35;3.08;;;;;;;23.75;49.88;100361.13;4132515;28;20050;-73
2022/07/29 07:45:59;;;;;;;3.53;2.53;;;;;;;23.83;49.65;100366.94;4132492;28;20038;-73
2022/07/29 07:48:04;;;;;;;9.80;3.30;;;;;;;23.79;50.02;100365.38;4133776;28;20045;-73
2022/07/29 07:50:09;;;;;;;10.02;3.75;;;;;;;23.78;49.83;100364.50;4133671;28;20038;-71
2022/07/29 07:52:22;;;;;;;5.82;2.80;;;;;;;23.78;49.64;100364.50;4132949;28;20047;-72
2022/07/29 07:54:25;;;;;;;6.45;3.35;;;;;;;23.83;49.57;100366.94;4132303;28;20161;-73
2022/07/29 07:56:28;;;;;;;6.85;2.97;;;;;;;23.77;49.21;100362.78;4133620;28;20122;-74
2022/07/29 07:58:37;;;;;;;7.57;3.40;;;;;;;23.75;49.41;100361.97;4133573;28;20098;-74
2022/07/29 08:00:40;;;;;;;4.88;2.60;;;;;;;23.84;49.54;100353.59;4133452;28;20121;-74
2022/07/29 08:02:44;;;;;;;8.27;2.72;;;;;;;23.84;49.79;100361.56;4131574;28;20443;-72
2022/07/29 08:04:49;;;;;;;5.50;2.70;;;;;;;23.87;49.91;100365.94;4132322;28;20053;-73
2022/07/29 08:06:53;;;;;;;8.57;3.47;;;;;;;23.87;49.90;100365.94;4133530;28;20042;-72
2022/07/29 08:08:56;;;;;;;5.50;3.03;;;;;;;23.87;49.86;100363.28;4132100;28;20046;-74
2022/07/29 08:11:21;;;;;;;7.88;3.90;;;;;;;23.98;49.61;100357.53;4133430;28;20126;-73
2022/07/29 08:13:26;;;;;;;6.20;3.28;;;;;;;24.00;49.62;100367.13;4132594;28;20056;-72
2022/07/29 08:15:29;;;;;;;10.10;2.80;;;;;;;24.00;49.77;100363.63;4132172;28;20082;-73
2022/07/29 08:17:32;;;;;;;9.95;2.92;;;;;;;24.05;50.03;100369.59;4133329;28;20038;-73
2022/07/29 08:19:38;;;;;;;5.63;2.70;;;;;;;24.09;50.13;100362.34;4133264;28;20042;-74
2022/07/29 08:21:42;;;;;;;9.38;3.00;;;;;;;24.13;49.64;100370.13;4132563;28;20404;-74
2022/07/29 08:23:52;;;;;;;;;;;;;;;24.07;49.84;100369.53;4132270;28;20088;-73
2022/07/29 08:26:03;;;;;;;5.68;3.10;;;;;;;24.25;49.29;100371.38;4133481;28;20004;-73
2022/07/29 08:28:06;;;;;;;6.97;2.92;;;;;;;24.37;49.09;100367.28;4131950;28;20141;-73
2022/07/29 08:30:10;;;;;;;7.05;2.90;;;;;;;24.36;48.86;100373.56;4131848;28;20038;-73
2022/07/29 08:32:13;;;;;;;4.07;2.72;;;;;;;24.40;48.54;100373.34;4131246;28;20037;-73
2022/07/29 08:34:36;;;;;;;5.60;2.92;;;;;;;24.35;49.26;100380.66;4131746;28;20054;-72
2022/07/29 08:36:39;;;;;;;11.18;3.60;;;;;;;24.34;48.64;100378.06;4133031;28;20527;-73
2022/07/29 08:38:43;;;;;;;5.32;3.00;;;;;;;24.27;48.88;100382.81;4131709;28;20046;-73
2022/07/29 08:40:46;;;;;;;6.78;2.90;;;;;;;24.27;48.75;100374.84;4132985;28;20048;-73
2022/07/29 08:42:50;;;;;;;8.33;2.93;;;;;;;24.36;48.87;100371.75;4132057;28;20034;-72
2022/07/29 08:44:54;;;;;;;11.32;3.50;;;;;;;24.48;48.46;100370.34;4132897;28;20038;-73
2022/07/29 08:46:57;;;;;;;5.00;2.90;;;;;;;24.63;48.37;100374.13;4131914;28;20076;-74
2022/07/29 08:49:00;;;;;;;5.68;3.15;;;;;;;24.75;48.42;100383.34;4131544;28;20092;-73
2022/07/29 08:51:04;;;;;;;8.52;3.50;;;;;;;24.72;48.56;100376.38;4132744;28;20046;-74
2022/07/29 08:53:08;;;;;;;;;;;;;;;24.79;48.62;100384.06;4132413;28;20534;-73
2022/07/29 08:55:16;;;;;;;7.68;3.15;;;;;;;24.91;48.04;100375.50;4131511;28;19922;-73
2022/07/29 08:57:25;;;;;;;4.57;2.90;;;;;;;25.05;48.22;100380.19;4115367;28;20480;-73
2022/07/29 08:59:31;;;;;;;7.80;3.47;;;;;;;25.07;48.20;100380.97;4131550;28;20100;-73
2022/07/29 09:01:38;;;;;;;6.47;3.40;;;;;;;25.11;47.91;100377.22;4132384;28;20053;-72
2022/07/29 09:03:47;;;;;;;8.23;3.45;;;;;;;25.11;47.65;100379.03;4131297;28;20407;-73
2022/07/29 09:05:50;;;;;;;5.45;2.90;;;;;;;25.10;47.83;100375.50;4132638;28;20048;-73
2022/07/29 09:07:54;;;;;;;10.07;3.40;;;;;;;25.24;47.96;100374.84;4132555;28;20162;-74
2022/07/29 09:09:57;;;;;;;7.78;3.88;;;;;;;25.36;47.72;100368.94;4132494;28;20042;-73
2022/07/29 09:12:03;;;;;;;4.13;2.50;;;;;;;25.25;47.82;100369.44;4130393;28;20065;-73
2022/07/29 09:14:06;;;;;;;8.10;3.55;;;;;;;25.21;48.06;100372.34;4130995;28;20054;-73
2022/07/29 09:16:09;;;;;;;6.20;3.15;;;;;;;25.29;47.99;100372.84;4132424;28;20129;-74
2022/07/29 09:18:12;;;;;;;7.70;3.47;;;;;;;25.49;47.96;100374.53;4132412;28;20043;-73
2022/07/29 09:22:52;;;;;;;6.88;3.30;;;;;;;25.68;47.52;100376.28;4131141;28;20042;-74
2022/07/29 09:24:55;;;;;;;5.95;3.00;;;;;;;25.73;47.82;100377.78;4132315;28;20057;-73
2022/07/29 09:26:58;;;;;;;8.70;3.40;;;;;;;25.77;47.48;100378.47;4132244;28;20132;-74
2022/07/29 09:29:09;;;;;;;8.48;2.92;;;;;;;25.73;46.41;100369.78;4132343;28;20038;-75
2022/07/29 09:31:12;;;;;;;6.55;3.15;;;;;;;25.83;46.44;100377.31;4132270;28;20450;-73
2022/07/29 09:33:15;;;;;;;6.68;2.78;;;;;;;25.82;46.66;100375.56;4130278;28;20046;-73
2022/07/29 09:35:20;;;;;;;6.72;3.05;;;;;;;25.88;46.43;100372.63;4130901;28;20039;-74
2022/07/29 09:37:29;;;;;;;8.07;3.30;;;;;;;25.98;46.49;100370.31;4130834;28;20086;-74
2022/07/29 09:39:34;;;;;;;14.13;3.42;;;;;;;25.89;46.15;100364.53;4114802;28;20090;-73
2022/07/29 09:41:57;;;;;;;9.95;3.53;;;;;;;25.83;46.36;100361.31;4131350;28;20042;-73
2022/07/29 09:44:02;;;;;;;7.40;3.08;;;;;;;25.78;45.91;100365.06;4130726;28;20042;-73
2022/07/29 09:46:12;;;;;;;10.20;3.97;;;;;;;25.76;45.24;100363.44;4132093;28;20437;-74
2022/07/29 09:48:17;;;;;;;7.72;3.30;;;;;;;25.66;45.77;100372.84;4131981;28;20051;-73
2022/07/29 09:50:23;;;;;;;6.25;3.40;;;;;;;25.64;46.03;100372.91;4131862;28;20052;-73
2022/07/29 09:52:27;;;;;;;9.88;3.50;;;;;;;25.61;45.76;100373.94;4131244;28;20038;-73